createdAt,value
2022-11-02T00:01:42.465Z,18.60
2022-11-02T00:04:11.518Z,18.70
2022-11-02T00:06:41.219Z,18.60
2022-11-02T00:09:09.273Z,18.60
2022-11-02T00:11:38.300Z,18.60
2022-11-02T00:14:06.487Z,18.60
2022-11-02T00:16:40.869Z,18.60
2022-11-02T00:19:10.215Z,18.60
2022-11-02T00:21:38.963Z,18.60
2022-11-02T00:24:09.644Z,18.60
2022-11-02T00:26:38.588Z,18.50
2022-11-02T00:29:08.056Z,18.50
2022-11-02T00:31:37.664Z,18.50
2022-11-02T00:34:05.657Z,18.50
2022-11-02T00:36:34.960Z,18.50
2022-11-02T00:39:03.016Z,18.50
2022-11-02T00:41:31.019Z,18.50
2022-11-02T00:43:59.161Z,18.50
2022-11-02T00:46:27.193Z,18.50
2022-11-02T00:48:56.608Z,18.40
2022-11-02T00:51:25.067Z,18.40
2022-11-02T00:53:53.231Z,18.40
2022-11-02T00:56:21.467Z,18.40
2022-11-02T00:58:49.501Z,18.40
2022-11-02T01:01:17.632Z,18.40
2022-11-02T01:03:45.896Z,18.40
2022-11-02T01:06:17.116Z,18.30
2022-11-02T01:08:45.128Z,18.40
2022-11-02T01:11:16.358Z,18.30
2022-11-02T01:13:46.114Z,18.30
2022-11-02T01:16:15.766Z,18.30
2022-11-02T01:18:44.468Z,18.30
2022-11-02T01:21:15.175Z,18.30
2022-11-02T01:23:43.216Z,18.30
2022-11-02T01:26:12.594Z,18.30
2022-11-02T01:28:42.403Z,18.20
2022-11-02T01:31:12.502Z,18.20
2022-11-02T01:33:45.950Z,18.20
2022-11-02T01:36:17.545Z,18.20
2022-11-02T01:38:45.626Z,18.20
2022-11-02T01:41:13.847Z,18.20
2022-11-02T01:43:44.612Z,18.20
2022-11-02T01:46:19.631Z,18.10
2022-11-02T01:48:57.700Z,18.10
2022-11-02T01:51:33.611Z,18.10
2022-11-02T01:54:08.904Z,18.10
2022-11-02T01:56:38.919Z,18.10
2022-11-02T01:59:13.619Z,18.10
2022-11-02T02:01:41.874Z,18.10
2022-11-02T02:04:12.329Z,18.10
2022-11-02T02:06:43.623Z,18.10
2022-11-02T02:09:14.581Z,18.10
2022-11-02T02:11:42.962Z,18.10
2022-11-02T02:14:15.786Z,18.00
2022-11-02T02:17:30.267Z,17.90
2022-11-02T02:20:07.232Z,18.00
2022-11-02T02:23:22.949Z,17.90
2022-11-02T02:26:44.850Z,17.90
2022-11-02T02:29:22.553Z,17.90
2022-11-02T02:31:59.857Z,17.90
2022-11-02T02:34:38.457Z,17.80
2022-11-02T02:37:11.382Z,17.90
2022-11-02T02:39:45.263Z,17.80
2022-11-02T02:42:22.040Z,17.80
2022-11-02T02:45:02.199Z,17.80
2022-11-02T02:47:34.493Z,17.80
2022-11-02T02:50:12.269Z,17.80
2022-11-02T02:52:42.843Z,17.80
2022-11-02T02:55:19.378Z,17.80
2022-11-02T02:57:50.445Z,17.80
2022-11-02T03:00:20.382Z,17.80
2022-11-02T03:03:01.049Z,17.70
2022-11-02T03:05:35.099Z,17.70
2022-11-02T03:08:11.562Z,17.70
2022-11-02T03:10:49.668Z,17.70
2022-11-02T03:13:39.781Z,17.70
2022-11-02T03:16:25.383Z,17.70
2022-11-02T03:19:03.332Z,17.70
2022-11-02T03:21:40.988Z,17.50
2022-11-02T03:24:17.869Z,17.60
2022-11-02T03:27:01.319Z,17.60
2022-11-02T03:29:40.983Z,17.60
2022-11-02T03:32:22.027Z,17.60
2022-11-02T03:34:56.590Z,17.60
2022-11-02T03:37:30.657Z,17.50
2022-11-02T03:40:11.865Z,17.50
2022-11-02T03:42:44.197Z,17.50
2022-11-02T03:45:18.769Z,17.50
2022-11-02T03:47:56.492Z,17.50
2022-11-02T03:50:27.538Z,17.50
2022-11-02T03:53:02.048Z,17.50
2022-11-02T03:55:36.902Z,17.50
2022-11-02T03:58:05.907Z,17.50
2022-11-02T04:00:37.056Z,17.50
2022-11-02T04:03:13.785Z,17.40
2022-11-02T04:05:45.353Z,17.50
2022-11-02T04:08:31.749Z,17.40
2022-11-02T04:11:21.000Z,17.40
2022-11-02T04:14:08.607Z,17.40
2022-11-02T04:16:39.876Z,17.40
2022-11-02T04:19:28.350Z,17.40
2022-11-02T04:22:19.203Z,17.40
2022-11-02T04:25:08.841Z,17.40
2022-11-02T04:27:37.725Z,17.30
2022-11-02T04:30:07.071Z,17.30
2022-11-02T04:32:57.006Z,17.30
2022-11-02T04:35:28.465Z,17.30
2022-11-02T04:38:15.156Z,17.30
2022-11-02T04:40:43.397Z,17.30
2022-11-02T04:43:11.538Z,17.30
2022-11-02T04:45:40.201Z,17.30
2022-11-02T04:48:10.779Z,17.30
2022-11-02T04:50:41.180Z,17.30
2022-11-02T04:53:10.572Z,17.30
2022-11-02T04:55:40.407Z,17.30
2022-11-02T04:58:08.753Z,17.30
2022-11-02T05:00:36.875Z,17.30
2022-11-02T05:03:09.733Z,17.30
2022-11-02T05:05:43.525Z,17.30
2022-11-02T05:08:11.730Z,17.30
2022-11-02T05:10:39.972Z,17.30
2022-11-02T05:13:08.086Z,17.30
2022-11-02T05:15:40.344Z,17.20
2022-11-02T05:18:10.259Z,17.20
2022-11-02T05:20:40.060Z,17.20
2022-11-02T05:23:09.584Z,17.20
2022-11-02T05:25:37.654Z,17.20
2022-11-02T05:28:06.135Z,17.20
2022-11-02T05:30:34.317Z,17.20
2022-11-02T05:33:03.081Z,17.20
2022-11-02T05:35:31.353Z,17.20
2022-11-02T05:37:59.425Z,17.20
2022-11-02T05:40:28.814Z,17.20
2022-11-02T05:43:00.946Z,17.10
2022-11-02T05:45:30.181Z,17.20
2022-11-02T05:48:00.962Z,17.10
2022-11-02T05:50:29.623Z,17.10
2022-11-02T05:52:57.745Z,17.10
2022-11-02T05:55:25.872Z,17.10
2022-11-02T05:57:56.889Z,17.10
2022-11-02T06:00:25.242Z,17.10
2022-11-02T06:02:58.117Z,17.10
2022-11-02T06:05:27.224Z,17.10
2022-11-02T06:07:59.726Z,17.10
2022-11-02T06:10:28.273Z,17.10
2022-11-02T06:12:59.436Z,17.10
2022-11-02T06:15:28.533Z,17.10
2022-11-02T06:17:56.612Z,17.10
2022-11-02T06:20:24.990Z,17.10
2022-11-02T06:22:53.053Z,17.10
2022-11-02T06:25:21.081Z,17.10
2022-11-02T06:27:53.451Z,17.10
2022-11-02T06:30:24.611Z,17.10
2022-11-02T06:32:54.818Z,17.10
2022-11-02T06:35:24.020Z,17.10
2022-11-02T06:37:52.077Z,17.10
2022-11-02T06:40:22.608Z,17.10
2022-11-02T06:43:15.573Z,17.10
2022-11-02T06:45:46.673Z,17.10
2022-11-02T06:48:14.737Z,17.10
2022-11-02T06:50:42.878Z,17.10
2022-11-02T06:53:11.213Z,17.10
2022-11-02T06:55:39.328Z,17.10
2022-11-02T06:58:07.366Z,17.10
2022-11-02T07:00:35.469Z,17.10
2022-11-02T07:03:07.596Z,17.10
2022-11-02T07:05:36.723Z,17.20
2022-11-02T07:08:06.072Z,17.10
2022-11-02T07:10:35.912Z,17.20
2022-11-02T07:13:04.473Z,17.20
2022-11-02T07:15:32.615Z,17.20
2022-11-02T07:18:00.669Z,17.20
2022-11-02T07:20:31.241Z,17.20
2022-11-02T07:23:01.739Z,17.20
2022-11-02T07:25:32.012Z,17.20
2022-11-02T07:28:01.245Z,17.20
2022-11-02T07:30:30.042Z,17.30
2022-11-02T07:32:58.161Z,17.30
2022-11-02T07:35:26.755Z,17.30
2022-11-02T07:38:01.150Z,17.30
2022-11-02T07:40:31.021Z,17.30
2022-11-02T07:42:59.761Z,17.30
2022-11-02T07:45:48.046Z,17.30
2022-11-02T07:48:16.062Z,17.40
2022-11-02T07:50:44.101Z,17.40
2022-11-02T07:53:13.688Z,17.40
2022-11-02T07:55:41.887Z,17.50
2022-11-02T07:58:13.994Z,17.50
2022-11-02T08:00:43.084Z,17.60
2022-11-02T08:03:14.645Z,17.60
2022-11-02T08:05:44.142Z,17.60
2022-11-02T08:08:18.681Z,17.60
2022-11-02T08:10:50.092Z,17.60
2022-11-02T08:13:21.758Z,17.70
2022-11-02T08:15:51.710Z,17.70
2022-11-02T08:18:22.357Z,17.70
2022-11-02T08:20:50.783Z,17.80
2022-11-02T08:23:21.746Z,17.80
2022-11-02T08:25:51.953Z,17.80
2022-11-02T08:28:23.625Z,17.80
2022-11-02T08:30:52.201Z,17.90
2022-11-02T08:33:22.019Z,17.90
2022-11-02T08:35:50.366Z,17.90
2022-11-02T08:38:22.406Z,17.90
2022-11-02T08:40:50.653Z,18.00
2022-11-02T08:43:18.761Z,18.00
2022-11-02T08:46:13.834Z,18.00
2022-11-02T08:48:35.474Z,18.00
2022-11-02T08:51:05.482Z,18.00
2022-11-02T08:53:34.807Z,18.10
2022-11-02T08:56:02.903Z,18.10
2022-11-02T08:58:31.114Z,18.20
2022-11-02T09:00:59.270Z,18.20
2022-11-02T09:03:28.296Z,18.20
2022-11-02T09:06:01.774Z,18.20
2022-11-02T09:08:30.982Z,18.30
2022-11-02T09:11:03.785Z,18.30
2022-11-02T09:13:32.035Z,18.30
2022-11-02T09:16:02.603Z,18.40
2022-11-02T09:18:31.155Z,18.40
2022-11-02T09:21:03.267Z,18.40
2022-11-02T09:23:32.475Z,18.40
2022-11-02T09:26:01.957Z,18.50
2022-11-02T09:28:30.012Z,18.50
2022-11-02T09:30:58.108Z,18.50
2022-11-02T09:33:26.142Z,18.50
2022-11-02T09:35:54.821Z,18.60
2022-11-02T09:38:22.881Z,18.60
2022-11-02T09:41:07.314Z,18.60
2022-11-02T09:43:51.104Z,18.60
2022-11-02T09:46:26.897Z,18.60
2022-11-02T09:48:59.710Z,18.60
2022-11-02T09:51:32.866Z,18.60
2022-11-02T09:54:13.285Z,18.60
2022-11-02T09:56:45.521Z,18.70
2022-11-02T09:59:17.131Z,18.70
2022-11-02T10:02:01.393Z,18.70
2022-11-02T10:05:01.441Z,18.60
2022-11-02T10:08:04.502Z,18.60
2022-11-02T10:10:39.424Z,18.70
2022-11-02T10:13:26.200Z,18.70
2022-11-02T10:16:01.383Z,18.70
2022-11-02T10:18:31.163Z,18.70
2022-11-02T10:21:02.214Z,18.70
2022-11-02T10:23:35.657Z,18.70
2022-11-02T10:26:05.072Z,18.60
2022-11-02T10:28:40.693Z,18.80
2022-11-02T10:31:25.851Z,18.80
2022-11-02T10:33:58.340Z,18.80
2022-11-02T10:36:51.514Z,18.80
2022-11-02T10:39:33.929Z,18.80
2022-11-02T10:42:27.884Z,18.80
2022-11-02T10:45:21.980Z,18.80
2022-11-02T10:48:03.969Z,18.80
2022-11-02T10:50:47.952Z,18.80
2022-11-02T10:56:16.941Z,18.90
2022-11-02T10:58:53.695Z,18.90
2022-11-02T11:01:23.126Z,19.00
2022-11-02T11:03:57.491Z,19.00
2022-11-02T11:06:29.700Z,19.00
2022-11-02T11:09:04.036Z,19.00
2022-11-02T11:11:35.614Z,19.10
2022-11-02T11:19:52.193Z,19.10
2022-11-02T11:22:30.448Z,19.10
2022-11-02T11:25:27.716Z,19.10
2022-11-02T11:27:58.335Z,19.20
2022-11-02T11:33:23.004Z,19.20
2022-11-02T11:35:52.605Z,19.30
2022-11-02T11:38:27.074Z,19.30
2022-11-02T11:40:58.501Z,19.30
2022-11-02T11:43:34.887Z,19.30
2022-11-02T11:46:07.373Z,19.30
2022-11-02T11:48:41.401Z,19.30
2022-11-02T11:51:32.147Z,19.30
2022-11-02T11:54:23.350Z,19.30
2022-11-02T11:56:54.077Z,19.30
2022-11-02T11:59:33.382Z,19.40
2022-11-02T12:02:04.189Z,19.40
2022-11-02T12:04:36.857Z,19.50
2022-11-02T12:07:28.910Z,19.40
2022-11-02T12:10:12.027Z,19.50
2022-11-02T12:13:06.561Z,19.50
2022-11-02T12:15:57.625Z,19.50
2022-11-02T12:18:46.193Z,19.50
2022-11-02T12:21:39.873Z,19.40
2022-11-02T12:24:39.664Z,19.50
2022-11-02T12:27:25.228Z,19.50
2022-11-02T12:30:10.052Z,19.50
2022-11-02T12:32:55.964Z,19.50
2022-11-02T12:35:51.687Z,19.50
2022-11-02T12:38:42.735Z,19.50
2022-11-02T12:41:14.571Z,19.60
2022-11-02T12:43:46.714Z,19.60
2022-11-02T12:46:38.447Z,19.60
2022-11-02T12:49:35.876Z,19.60
2022-11-02T12:52:19.165Z,19.60
2022-11-02T12:54:53.028Z,19.60
2022-11-02T12:57:26.655Z,19.60
2022-11-02T13:00:00.923Z,19.60
2022-11-02T13:02:39.705Z,19.50
2022-11-02T13:05:14.319Z,19.60
2022-11-02T13:07:49.724Z,19.60
2022-11-02T13:10:25.727Z,19.60
2022-11-02T13:12:59.317Z,19.70
2022-11-02T13:15:32.893Z,19.60
2022-11-02T13:18:06.681Z,19.70
2022-11-02T13:20:43.616Z,19.70
2022-11-02T13:23:27.940Z,19.60
2022-11-02T13:26:01.991Z,19.70
2022-11-02T13:28:42.310Z,19.70
2022-11-02T13:31:17.912Z,19.70
2022-11-02T13:33:50.451Z,19.70
2022-11-02T13:36:19.468Z,19.70
2022-11-02T13:38:52.408Z,19.70
2022-11-02T13:41:48.335Z,19.60
2022-11-02T13:44:34.991Z,19.70
2022-11-02T13:47:29.612Z,19.70
2022-11-02T13:50:01.341Z,19.70
2022-11-02T13:52:39.773Z,19.60
2022-11-02T13:55:15.509Z,19.70
2022-11-02T13:57:49.468Z,19.60
2022-11-02T14:00:37.812Z,19.60
2022-11-02T14:03:16.448Z,19.60
2022-11-02T14:05:50.213Z,19.60
2022-11-02T14:08:31.164Z,19.60
2022-11-02T14:11:23.817Z,19.60
2022-11-02T14:14:17.900Z,19.60
2022-11-02T14:16:58.875Z,19.60
2022-11-02T14:19:33.470Z,19.50
2022-11-02T14:22:14.163Z,19.60
2022-11-02T14:25:17.970Z,19.50
2022-11-02T14:27:46.911Z,19.60
2022-11-02T14:30:45.562Z,19.50
2022-11-02T14:33:42.047Z,19.50
2022-11-02T14:36:30.269Z,19.50
2022-11-02T14:39:14.988Z,19.50
2022-11-02T14:42:08.957Z,19.50
2022-11-02T14:45:40.259Z,19.40
2022-11-02T14:48:17.145Z,19.50
2022-11-02T14:50:59.471Z,19.50
2022-11-02T14:53:32.916Z,19.50
2022-11-02T14:56:01.256Z,19.50
2022-11-02T14:58:36.428Z,19.50
2022-11-02T15:03:41.242Z,19.50
2022-11-02T15:06:20.062Z,19.50
2022-11-02T15:08:55.767Z,19.50
2022-11-02T15:11:48.158Z,19.40
2022-11-02T15:14:57.102Z,19.40
2022-11-02T15:18:00.009Z,19.40
2022-11-02T15:20:32.744Z,19.40
2022-11-02T15:23:30.406Z,19.40
2022-11-02T15:26:00.268Z,19.30
2022-11-02T15:28:33.432Z,19.40
2022-11-02T15:31:07.469Z,19.40
2022-11-02T15:33:40.614Z,19.40
2022-11-02T15:36:23.848Z,19.30
2022-11-02T15:38:54.458Z,19.30
2022-11-02T15:41:37.215Z,19.30
2022-11-02T15:44:23.000Z,19.30
2022-11-02T15:47:07.681Z,19.30
2022-11-02T15:50:19.363Z,19.20
2022-11-02T15:53:23.234Z,19.20
2022-11-02T15:56:21.441Z,19.20
2022-11-02T15:59:22.353Z,19.20
2022-11-02T16:02:13.301Z,19.20
2022-11-02T16:04:46.902Z,19.20
2022-11-02T16:07:19.603Z,19.20
2022-11-02T16:09:49.372Z,19.10
2022-11-02T16:12:20.077Z,19.10
2022-11-02T16:14:55.864Z,19.10
2022-11-02T16:17:26.734Z,19.10
2022-11-02T16:20:11.973Z,19.10
2022-11-02T16:22:41.136Z,19.10
2022-11-02T16:25:20.198Z,19.10
2022-11-02T16:27:48.543Z,19.10
2022-11-02T16:30:22.219Z,19.00
2022-11-02T16:32:59.228Z,19.00
2022-11-02T16:35:28.530Z,19.00
2022-11-02T16:37:56.718Z,19.00
2022-11-02T16:40:26.509Z,19.00
2022-11-02T16:42:55.760Z,19.00
2022-11-02T16:45:42.103Z,18.80
2022-11-02T16:48:25.560Z,18.90
2022-11-02T16:51:18.819Z,18.80
2022-11-02T16:53:46.866Z,18.90
2022-11-02T16:56:28.731Z,18.80
2022-11-02T16:59:02.300Z,18.80
2022-11-02T17:01:38.752Z,18.80
2022-11-02T17:04:19.321Z,18.70
2022-11-02T17:06:50.152Z,18.70
2022-11-02T17:09:28.025Z,18.70
2022-11-02T17:12:01.137Z,18.70
2022-11-02T17:14:30.034Z,18.70
2022-11-02T17:17:01.495Z,18.60
2022-11-02T17:19:47.596Z,18.60
2022-11-02T17:22:26.371Z,18.40
2022-11-02T17:25:13.936Z,18.50
2022-11-02T17:27:43.396Z,18.50
2022-11-02T17:30:48.378Z,18.40
2022-11-02T17:33:27.246Z,18.40
2022-11-02T17:35:57.650Z,18.40
2022-11-02T17:38:28.304Z,18.40
2022-11-02T17:40:57.037Z,18.40
2022-11-02T17:43:25.535Z,18.40
2022-11-02T17:45:58.259Z,18.30
2022-11-02T17:48:29.263Z,18.30
2022-11-02T17:51:00.499Z,18.30
2022-11-02T17:53:28.854Z,18.30
2022-11-02T17:55:57.430Z,18.30
2022-11-02T17:58:26.844Z,18.20
2022-11-02T18:00:55.405Z,18.20
2022-11-02T18:03:29.806Z,18.20
2022-11-02T18:06:00.772Z,18.10
2022-11-02T18:08:29.544Z,18.10
2022-11-02T18:10:58.185Z,18.10
2022-11-02T18:13:27.668Z,18.10
2022-11-02T18:15:55.792Z,18.00
2022-11-02T18:18:23.913Z,18.00
2022-11-02T18:20:51.986Z,18.00
2022-11-02T18:23:20.581Z,18.00
2022-11-02T18:25:48.787Z,17.90
2022-11-02T18:28:17.018Z,17.90
2022-11-02T18:30:46.502Z,17.90
2022-11-02T18:33:15.167Z,17.80
2022-11-02T18:35:44.304Z,17.80
2022-11-02T18:38:12.995Z,17.80
2022-11-02T18:40:41.110Z,17.80
2022-11-02T18:43:09.720Z,17.70
2022-11-02T18:45:38.029Z,17.70
2022-11-02T18:48:09.223Z,17.70
2022-11-02T18:50:37.434Z,17.70
2022-11-02T18:53:05.473Z,17.60
2022-11-02T18:55:33.552Z,17.50
2022-11-02T18:58:01.602Z,17.50
2022-11-02T19:00:29.766Z,17.60
2022-11-02T19:02:57.870Z,17.50
2022-11-02T19:05:45.379Z,17.50
2022-11-02T19:08:31.382Z,17.50
2022-11-02T19:10:59.484Z,17.40
2022-11-02T19:13:27.504Z,17.40
2022-11-02T19:15:55.725Z,17.40
2022-11-02T19:18:23.721Z,17.40
2022-11-02T19:20:53.262Z,17.40
2022-11-02T19:23:21.364Z,17.30
2022-11-02T19:25:52.552Z,17.30
2022-11-02T19:28:20.700Z,17.30
2022-11-02T19:30:48.865Z,17.30
2022-11-02T19:33:17.091Z,17.30
2022-11-02T19:35:56.526Z,17.20
2022-11-02T19:38:24.693Z,17.20
2022-11-02T19:41:02.361Z,17.20
2022-11-02T19:43:30.577Z,17.20
2022-11-02T19:46:02.544Z,17.10
2022-11-02T19:48:31.849Z,17.10
2022-11-02T19:51:09.136Z,17.10
2022-11-02T19:53:37.937Z,17.10
2022-11-02T19:56:10.288Z,17.10
2022-11-02T19:58:39.385Z,17.10
2022-11-02T20:01:08.986Z,17.10
2022-11-02T20:03:38.116Z,17.00
2022-11-02T20:06:11.116Z,17.00
2022-11-02T20:08:39.875Z,17.00
2022-11-02T20:11:10.917Z,17.00
2022-11-02T20:13:42.406Z,17.00
2022-11-02T20:16:12.959Z,17.00
2022-11-02T20:18:43.657Z,16.90
2022-11-02T20:21:16.541Z,16.90
2022-11-02T20:23:45.536Z,16.90
2022-11-02T20:26:17.568Z,16.90
2022-11-02T20:28:48.353Z,16.90
2022-11-02T20:31:19.949Z,16.90
2022-11-02T20:33:48.969Z,16.90
2022-11-02T20:36:18.954Z,16.80
2022-11-02T20:38:47.404Z,16.80
2022-11-02T20:41:18.899Z,16.80
2022-11-02T20:43:49.646Z,16.80
2022-11-02T20:46:38.156Z,16.80
2022-11-02T20:49:20.349Z,16.70
2022-11-02T20:51:52.394Z,16.70
2022-11-02T20:54:20.749Z,16.70
2022-11-02T20:56:49.461Z,16.70
2022-11-02T20:59:17.537Z,16.70
2022-11-02T21:01:46.030Z,16.70
2022-11-02T21:04:20.256Z,16.70
2022-11-02T21:06:49.562Z,16.70
2022-11-02T21:09:19.426Z,16.60
2022-11-02T21:12:05.091Z,16.60
2022-11-02T21:14:33.255Z,16.60
2022-11-02T21:17:02.709Z,16.60
2022-11-02T21:19:30.835Z,16.50
2022-11-02T21:22:00.276Z,16.50
2022-11-02T21:24:30.397Z,16.50
2022-11-02T21:26:58.497Z,16.50
2022-11-02T21:29:26.521Z,16.50
2022-11-02T21:31:54.553Z,16.50
2022-11-02T21:34:22.580Z,16.50
2022-11-02T21:36:50.716Z,16.40
2022-11-02T21:39:18.874Z,16.40
2022-11-02T21:41:48.319Z,16.40
2022-11-02T21:44:16.322Z,16.40
2022-11-02T21:46:44.320Z,16.40
2022-11-02T21:49:12.952Z,16.40
2022-11-02T21:51:42.763Z,16.30
2022-11-02T21:54:11.102Z,16.30
2022-11-02T21:56:39.630Z,16.30
2022-11-02T21:59:09.806Z,16.30
2022-11-02T22:01:47.819Z,16.30
2022-11-02T22:04:19.461Z,16.20
2022-11-02T22:06:47.573Z,16.20
2022-11-02T22:09:15.641Z,16.20
2022-11-02T22:11:44.861Z,16.20
2022-11-02T22:14:14.172Z,16.20
2022-11-02T22:16:44.409Z,16.20
2022-11-02T22:19:15.185Z,16.10
2022-11-02T22:21:46.104Z,16.10
2022-11-02T22:24:14.148Z,16.10
2022-11-02T22:26:42.626Z,16.10
2022-11-02T22:29:10.859Z,16.10
2022-11-02T22:31:42.030Z,16.10
2022-11-02T22:34:12.389Z,16.00
2022-11-02T22:36:45.046Z,16.00
2022-11-02T22:39:13.927Z,16.00
2022-11-02T22:41:44.222Z,16.00
2022-11-02T22:44:15.521Z,16.00
2022-11-02T22:46:47.600Z,16.00
2022-11-02T22:49:18.235Z,15.90
2022-11-02T22:51:49.304Z,15.90
2022-11-02T22:54:19.937Z,15.90
2022-11-02T22:56:49.874Z,15.90
2022-11-02T22:59:18.155Z,15.90
2022-11-02T23:01:47.622Z,15.90
2022-11-02T23:04:15.850Z,15.90
2022-11-02T23:06:43.857Z,15.90
2022-11-02T23:09:12.538Z,15.80
2022-11-02T23:11:40.783Z,15.80
2022-11-02T23:14:12.291Z,15.80
2022-11-02T23:16:42.526Z,15.80
2022-11-02T23:19:22.146Z,15.80
2022-11-02T23:22:15.496Z,15.70
2022-11-02T23:25:03.713Z,15.70
2022-11-02T23:27:33.156Z,15.70
2022-11-02T23:30:18.782Z,15.70
2022-11-02T23:32:46.764Z,15.70
2022-11-02T23:35:33.972Z,15.60
2022-11-02T23:38:04.347Z,15.50
2022-11-02T23:40:33.477Z,15.60
2022-11-02T23:43:01.535Z,15.60
2022-11-02T23:45:29.551Z,15.60
2022-11-02T23:48:03.871Z,15.60
2022-11-02T23:50:51.763Z,15.60
2022-11-02T23:53:40.388Z,15.50
2022-11-02T23:56:34.268Z,15.40
2022-11-02T23:59:08.024Z,15.50
